TimeHST,TemperatureF,Dew PointF,Humidity,Sea Level PressureIn,VisibilityMPH,Wind Direction,Wind SpeedMPH,Gust SpeedMPH,PrecipitationIn,Events,Conditions,WindDirDegrees,DateUTC
12:53 AM,78.1,70.0,76,30.07,10.0,East,13.8,-,N/A,,Partly Cloudy,80,2013-09-09 10:53:00
1:53 AM,78.1,70.0,76,30.06,10.0,East,12.7,-,N/A,,Partly Cloudy,80,2013-09-09 11:53:00
2:53 AM,78.1,71.1,79,30.04,10.0,ENE,10.4,-,N/A,,Partly Cloudy,70,2013-09-09 12:53:00
3:53 AM,78.1,70.0,76,30.04,10.0,East,11.5,-,N/A,,Partly Cloudy,80,2013-09-09 13:53:00
4:53 AM,78.1,70.0,76,30.03,10.0,ENE,15.0,-,N/A,,Partly Cloudy,70,2013-09-09 14:53:00
5:53 AM,78.1,70.0,76,30.04,10.0,East,11.5,-,N/A,,Clear,80,2013-09-09 15:53:00
6:53 AM,78.1,70.0,76,30.06,10.0,East,11.5,-,N/A,,Mostly Cloudy,80,2013-09-09 16:53:00
7:33 AM,80.6,69.8,70,30.07,10.0,East,13.8,-,N/A,,Scattered Clouds,80,2013-09-09 17:33:00
7:53 AM,81.0,70.0,69,30.07,10.0,East,15.0,-,N/A,,Partly Cloudy,80,2013-09-09 17:53:00
8:53 AM,82.0,69.1,65,30.08,10.0,East,12.7,-,N/A,,Partly Cloudy,90,2013-09-09 18:53:00
9:53 AM,82.9,69.1,63,30.09,10.0,East,11.5,-,N/A,,Clear,80,2013-09-09 19:53:00
10:53 AM,84.0,70.0,63,30.09,10.0,ENE,11.5,-,N/A,,Clear,70,2013-09-09 20:53:00
11:53 AM,84.0,69.1,61,30.08,10.0,ENE,11.5,-,N/A,,Clear,70,2013-09-09 21:53:00
12:53 PM,84.9,70.0,61,30.06,10.0,ENE,11.5,-,N/A,,Clear,70,2013-09-09 22:53:00
1:53 PM,84.0,69.1,61,30.05,10.0,ENE,12.7,-,N/A,,Clear,60,2013-09-09 23:53:00
2:53 PM,84.9,69.1,59,30.04,10.0,NE,11.5,-,N/A,,Clear,40,2013-09-10 00:53:00
3:53 PM,84.0,69.1,61,30.04,10.0,NE,11.5,-,N/A,,Clear,40,2013-09-10 01:53:00
4:53 PM,82.9,70.0,65,30.04,10.0,NE,13.8,-,N/A,,Clear,40,2013-09-10 02:53:00
5:53 PM,81.0,70.0,69,30.05,10.0,NE,13.8,-,N/A,,Clear,40,2013-09-10 03:53:00
6:53 PM,79.0,69.1,72,30.07,10.0,NE,13.8,-,N/A,,Partly Cloudy,50,2013-09-10 04:53:00
7:53 PM,79.0,70.0,74,30.09,10.0,NE,12.7,-,N/A,,Scattered Clouds,40,2013-09-10 05:53:00
8:53 PM,79.0,69.1,72,30.10,10.0,NE,11.5,-,N/A,,Mostly Cloudy,40,2013-09-10 06:53:00
9:07 PM,78.8,69.8,74,30.11,10.0,NE,11.5,-,N/A,,Scattered Clouds,40,2013-09-10 07:07:00
9:49 PM,78.8,69.8,74,30.12,10.0,NE,15.0,-,N/A,,Mostly Cloudy,40,2013-09-10 07:49:00
9:53 PM,79.0,70.0,74,30.11,10.0,NE,13.8,-,N/A,,Scattered Clouds,40,2013-09-10 07:53:00
10:53 PM,78.1,71.1,79,30.10,10.0,North,8.1,-,0.01,Rain,Light Rain,360,2013-09-10 08:53:00
11:04 PM,75.2,71.6,89,30.11,6.0,East,10.4,18.4,0.03,Rain,Heavy Rain,80,2013-09-10 09:04:00
11:12 PM,77.0,71.6,83,30.11,10.0,ENE,18.4,-,0.03,Rain,Light Rain,70,2013-09-10 09:12:00
11:53 PM,77.0,71.1,82,30.09,10.0,NE,11.5,-,0.03,,Scattered Clouds,50,2013-09-10 09:53:00